createdAt,value
2023-04-27T00:01:06.996Z,1.41
2023-04-27T00:03:33.746Z,1.38
2023-04-27T00:06:00.469Z,1.34
2023-04-27T00:08:27.134Z,1.29
2023-04-27T00:10:53.729Z,1.32
2023-04-27T00:13:20.481Z,1.34
2023-04-27T00:15:47.017Z,1.32
2023-04-27T00:18:13.460Z,1.30
2023-04-27T00:20:40.900Z,1.33
2023-04-27T00:23:07.361Z,1.29
2023-04-27T00:25:33.995Z,1.20
2023-04-27T00:28:00.615Z,1.23
2023-04-27T00:30:27.234Z,1.16
2023-04-27T00:32:53.709Z,1.15
2023-04-27T00:35:20.425Z,1.18
2023-04-27T00:37:47.031Z,1.10
2023-04-27T00:40:13.799Z,1.11
2023-04-27T00:42:40.483Z,1.08
2023-04-27T00:45:07.598Z,1.07
2023-04-27T00:47:34.769Z,1.03
2023-04-27T00:50:01.537Z,0.95
2023-04-27T00:52:28.073Z,0.92
2023-04-27T00:54:57.409Z,0.94
2023-04-27T00:57:23.955Z,0.87
2023-04-27T00:59:50.659Z,0.88
2023-04-27T01:02:17.410Z,0.88
2023-04-27T01:04:44.509Z,0.81
2023-04-27T01:07:11.034Z,0.75
2023-04-27T01:09:37.530Z,0.76
2023-04-27T01:12:04.825Z,0.74
2023-04-27T01:14:31.541Z,0.71
2023-04-27T01:16:58.462Z,0.73
2023-04-27T01:19:25.038Z,0.72
2023-04-27T01:21:51.579Z,0.68
2023-04-27T01:24:18.088Z,0.63
2023-04-27T01:26:44.600Z,0.61
2023-04-27T01:29:11.567Z,0.60
2023-04-27T01:31:38.781Z,0.53
2023-04-27T01:34:06.117Z,0.50
2023-04-27T01:36:32.856Z,0.42
2023-04-27T01:38:59.384Z,0.35
2023-04-27T01:41:25.933Z,0.39
2023-04-27T01:43:52.502Z,0.43
2023-04-27T01:46:19.063Z,0.38
2023-04-27T01:48:45.701Z,0.38
2023-04-27T01:51:12.266Z,0.37
2023-04-27T01:53:38.802Z,0.35
2023-04-27T01:56:06.887Z,0.34
2023-04-27T01:58:33.406Z,0.28
2023-04-27T02:00:59.893Z,0.29
2023-04-27T02:03:26.786Z,0.22
2023-04-27T02:05:53.435Z,0.24
2023-04-27T02:08:20.243Z,0.28
2023-04-27T02:10:46.798Z,0.30
2023-04-27T02:13:13.345Z,0.25
2023-04-27T02:15:39.871Z,0.20
2023-04-27T02:18:06.611Z,0.25
2023-04-27T02:20:33.385Z,0.17
2023-04-27T02:23:00.249Z,0.20
2023-04-27T02:25:26.932Z,0.21
2023-04-27T02:27:53.767Z,0.14
2023-04-27T02:30:21.367Z,0.11
2023-04-27T02:32:48.361Z,0.10
2023-04-27T02:35:14.918Z,0.14
2023-04-27T02:37:41.710Z,0.12
2023-04-27T02:40:09.379Z,0.09
2023-04-27T02:42:38.240Z,0.06
2023-04-27T02:45:06.978Z,0.05
2023-04-27T02:47:33.590Z,-0.06
2023-04-27T02:50:01.095Z,-0.01
2023-04-27T02:52:27.853Z,-0.02
2023-04-27T02:54:54.537Z,-0.04
2023-04-27T02:57:21.105Z,-0.06
2023-04-27T02:59:47.603Z,-0.09
2023-04-27T03:02:14.126Z,-0.13
2023-04-27T03:04:40.778Z,-0.23
2023-04-27T03:07:07.299Z,-0.22
2023-04-27T03:09:33.763Z,-0.23
2023-04-27T03:12:00.429Z,-0.23
2023-04-27T03:14:27.021Z,-0.24
2023-04-27T03:16:55.706Z,-0.23
2023-04-27T03:19:22.173Z,-0.21
2023-04-27T03:21:48.682Z,-0.31
2023-04-27T03:24:15.197Z,-0.29
2023-04-27T03:26:41.708Z,-0.33
2023-04-27T03:29:08.136Z,-0.30
2023-04-27T03:31:34.671Z,-0.33
2023-04-27T03:34:01.628Z,-0.34
2023-04-27T03:36:28.557Z,-0.37
2023-04-27T03:38:55.031Z,-0.42
2023-04-27T03:41:21.629Z,-0.43
2023-04-27T03:43:49.098Z,-0.47
2023-04-27T03:46:15.572Z,-0.44
2023-04-27T03:48:43.856Z,-0.44
2023-04-27T03:51:10.379Z,-0.46
2023-04-27T03:53:36.847Z,-0.49
2023-04-27T03:56:03.652Z,-0.50
2023-04-27T03:58:30.104Z,-0.51
2023-04-27T04:00:57.330Z,-0.53
2023-04-27T04:03:24.005Z,-0.53
2023-04-27T04:05:50.564Z,-0.53
2023-04-27T04:08:17.057Z,-0.54
2023-04-27T04:10:43.663Z,-0.54
2023-04-27T04:13:11.041Z,-0.57
2023-04-27T04:15:37.610Z,-0.56
2023-04-27T04:18:04.264Z,-0.58
2023-04-27T04:20:30.772Z,-0.66
2023-04-27T04:22:57.239Z,-0.73
2023-04-27T04:25:26.079Z,-0.60
2023-04-27T04:27:52.588Z,-0.59
2023-04-27T04:30:20.005Z,-0.63
2023-04-27T04:32:46.600Z,-0.66
2023-04-27T04:35:13.312Z,-0.68
2023-04-27T04:37:39.850Z,-0.65
2023-04-27T04:40:09.053Z,-0.62
2023-04-27T04:42:39.198Z,-0.57
2023-04-27T04:45:07.135Z,-0.52
2023-04-27T04:47:34.296Z,-0.57
2023-04-27T04:50:01.221Z,-0.53
2023-04-27T04:52:27.748Z,-0.50
2023-04-27T04:54:54.267Z,-0.43
2023-04-27T04:57:21.331Z,-0.36
2023-04-27T04:59:48.030Z,-0.29
2023-04-27T05:02:14.659Z,-0.35
2023-04-27T05:04:41.374Z,-0.29
2023-04-27T05:07:08.197Z,-0.29
2023-04-27T05:09:34.762Z,-0.30
2023-04-27T05:12:01.852Z,-0.26
2023-04-27T05:14:28.465Z,-0.26
2023-04-27T05:16:55.123Z,-0.22
2023-04-27T05:19:21.735Z,-0.13
2023-04-27T05:21:48.388Z,-0.05
2023-04-27T05:24:14.928Z,-0.01
2023-04-27T05:26:43.456Z,0.05
2023-04-27T05:29:09.982Z,0.05
2023-04-27T05:31:36.495Z,0.07
2023-04-27T05:34:03.101Z,0.14
2023-04-27T05:36:29.774Z,0.25
2023-04-27T05:38:56.302Z,0.34
2023-04-27T05:41:23.770Z,0.38
2023-04-27T05:43:50.304Z,0.47
2023-04-27T05:46:16.978Z,0.56
2023-04-27T05:48:43.517Z,0.62
2023-04-27T05:51:10.138Z,0.71
2023-04-27T05:53:36.642Z,0.77
2023-04-27T05:56:04.600Z,0.79
2023-04-27T05:58:31.300Z,0.92
2023-04-27T06:00:57.894Z,0.94
2023-04-27T06:03:25.083Z,1.07
2023-04-27T06:05:59.736Z,1.17
2023-04-27T06:08:27.386Z,1.31
2023-04-27T06:10:54.339Z,1.39
2023-04-27T06:13:21.778Z,1.45
2023-04-27T06:15:48.417Z,1.52
2023-04-27T06:18:15.089Z,1.56
2023-04-27T06:20:42.916Z,1.67
2023-04-27T06:23:09.469Z,1.77
2023-04-27T06:25:38.790Z,1.87
2023-04-27T06:28:05.400Z,2.01
2023-04-27T06:30:31.894Z,2.09
2023-04-27T06:32:58.629Z,2.19
2023-04-27T06:35:25.079Z,2.30
2023-04-27T06:37:51.528Z,2.36
2023-04-27T06:40:18.269Z,2.51
2023-04-27T06:42:44.882Z,2.61
2023-04-27T06:45:12.350Z,2.75
2023-04-27T06:47:38.810Z,2.80
2023-04-27T06:50:05.815Z,2.89
2023-04-27T06:52:33.839Z,3.10
2023-04-27T06:55:00.389Z,3.24
2023-04-27T06:57:27.807Z,3.30
2023-04-27T06:59:54.477Z,3.35
2023-04-27T07:02:21.849Z,3.54
2023-04-27T07:04:50.240Z,3.69
2023-04-27T07:07:16.863Z,3.78
2023-04-27T07:09:43.566Z,3.89
2023-04-27T07:12:10.049Z,4.03
2023-04-27T07:14:36.542Z,4.10
2023-04-27T07:17:03.057Z,4.24
2023-04-27T07:19:29.585Z,4.44
2023-04-27T07:21:56.156Z,4.62
2023-04-27T07:24:22.684Z,4.79
2023-04-27T07:26:49.377Z,4.84
2023-04-27T07:29:26.394Z,4.97
2023-04-27T07:31:54.520Z,5.00
2023-04-27T07:34:21.498Z,5.17
2023-04-27T07:36:48.169Z,5.27
2023-04-27T07:39:15.028Z,5.49
2023-04-27T07:41:41.739Z,5.61
2023-04-27T07:44:08.220Z,5.76
2023-04-27T07:46:34.890Z,5.93
2023-04-27T07:49:02.508Z,6.09
2023-04-27T07:51:29.365Z,6.25
2023-04-27T07:53:56.364Z,6.38
2023-04-27T07:56:22.939Z,6.61
2023-04-27T07:58:49.455Z,6.81
2023-04-27T08:01:16.942Z,6.97
2023-04-27T08:03:44.696Z,7.14
2023-04-27T08:06:12.216Z,7.34
2023-04-27T08:08:38.993Z,8.10
2023-04-27T08:11:08.878Z,9.82
2023-04-27T08:13:36.205Z,10.99
2023-04-27T08:16:03.052Z,11.92
2023-04-27T08:18:29.612Z,12.38
2023-04-27T08:20:56.174Z,13.43
2023-04-27T08:23:22.764Z,14.39
2023-04-27T08:25:49.223Z,14.24
2023-04-27T08:28:16.059Z,14.21
2023-04-27T08:30:42.949Z,14.37
2023-04-27T08:33:09.927Z,14.93
2023-04-27T08:35:36.645Z,15.08
2023-04-27T08:38:03.230Z,15.23
2023-04-27T08:40:29.802Z,15.58
2023-04-27T08:42:58.198Z,15.45
2023-04-27T08:45:26.309Z,15.46
2023-04-27T08:47:53.233Z,15.60
2023-04-27T08:50:20.108Z,15.32
2023-04-27T08:52:48.303Z,15.46
2023-04-27T08:55:16.655Z,15.87
2023-04-27T08:57:57.533Z,16.16
2023-04-27T09:00:25.502Z,16.40
2023-04-27T09:02:52.238Z,16.22
2023-04-27T09:05:21.363Z,16.12
2023-04-27T09:08:05.783Z,15.80
2023-04-27T09:10:44.736Z,16.41
2023-04-27T09:13:11.607Z,16.79
2023-04-27T09:15:48.884Z,16.80
2023-04-27T09:18:23.277Z,17.09
2023-04-27T09:20:51.591Z,17.43
2023-04-27T09:23:29.480Z,16.60
2023-04-27T09:25:57.323Z,17.23
2023-04-27T09:28:27.569Z,16.59
2023-04-27T09:30:59.499Z,17.27
2023-04-27T09:33:28.486Z,16.98
2023-04-27T09:35:55.548Z,16.60
2023-04-27T09:38:22.925Z,16.51
2023-04-27T09:40:51.444Z,16.70
2023-04-27T09:43:18.031Z,16.70
2023-04-27T09:45:45.166Z,16.62
2023-04-27T09:48:12.989Z,16.42
2023-04-27T09:50:44.380Z,16.11
2023-04-27T09:53:13.795Z,16.03
2023-04-27T09:55:42.877Z,15.52
2023-04-27T09:58:33.775Z,15.57
2023-04-27T10:01:40.753Z,15.55
2023-04-27T10:04:30.628Z,15.18
2023-04-27T10:07:03.950Z,15.14
2023-04-27T10:09:47.674Z,15.09
2023-04-27T10:12:20.012Z,15.15
2023-04-27T10:14:51.342Z,14.89
2023-04-27T10:17:18.656Z,14.95
2023-04-27T10:19:58.272Z,14.93
2023-04-27T10:22:37.652Z,14.97
2023-04-27T10:25:22.537Z,15.07
2023-04-27T10:28:01.225Z,15.02
2023-04-27T10:30:32.694Z,14.89
2023-04-27T10:33:03.986Z,14.91
2023-04-27T10:35:37.184Z,14.90
2023-04-27T10:38:18.071Z,14.85
2023-04-27T10:40:46.172Z,14.61
2023-04-27T10:43:14.899Z,14.59
2023-04-27T10:45:41.861Z,14.71
2023-04-27T10:48:09.005Z,14.64
2023-04-27T10:50:35.698Z,14.45
2023-04-27T10:53:07.263Z,14.27
2023-04-27T10:55:35.290Z,14.10
2023-04-27T10:58:02.567Z,13.96
2023-04-27T11:00:36.619Z,13.95
2023-04-27T11:03:21.081Z,14.34
2023-04-27T11:05:49.391Z,14.48
2023-04-27T11:08:20.977Z,14.60
2023-04-27T11:10:50.121Z,14.70
2023-04-27T11:13:19.737Z,14.73
2023-04-27T11:15:49.208Z,14.74
2023-04-27T11:18:17.892Z,14.81
2023-04-27T11:20:47.411Z,14.81
2023-04-27T11:23:25.031Z,14.66
2023-04-27T11:25:52.429Z,14.68
2023-04-27T11:28:20.541Z,14.86
2023-04-27T11:30:47.671Z,14.91
2023-04-27T11:33:14.280Z,14.95
2023-04-27T11:35:42.564Z,15.21
2023-04-27T11:38:15.951Z,15.14
2023-04-27T11:40:42.760Z,15.19
2023-04-27T11:43:13.300Z,15.23
2023-04-27T11:45:46.287Z,15.31
2023-04-27T11:48:16.688Z,15.22
2023-04-27T11:50:48.380Z,15.07
2023-04-27T11:53:17.376Z,14.84
2023-04-27T11:55:45.854Z,14.90
2023-04-27T11:58:16.411Z,15.11
2023-04-27T12:00:42.915Z,15.26
2023-04-27T12:03:09.850Z,15.23
2023-04-27T12:05:36.922Z,15.45
2023-04-27T12:08:03.600Z,15.48
2023-04-27T12:10:31.112Z,15.40
2023-04-27T12:12:57.616Z,15.62
2023-04-27T12:15:24.233Z,15.83
2023-04-27T12:17:50.989Z,16.05
2023-04-27T12:20:17.683Z,16.09
2023-04-27T12:22:44.295Z,16.19
2023-04-27T12:25:11.080Z,16.23
2023-04-27T12:27:37.600Z,16.30
2023-04-27T12:30:04.801Z,16.22
2023-04-27T12:32:31.909Z,16.20
2023-04-27T12:34:58.517Z,16.41
2023-04-27T12:37:26.998Z,16.28
2023-04-27T12:39:53.656Z,16.24
2023-04-27T12:42:24.119Z,16.40
2023-04-27T12:44:51.593Z,16.29
2023-04-27T12:47:40.505Z,16.60
2023-04-27T12:50:05.851Z,16.80
2023-04-27T12:52:32.385Z,16.99
2023-04-27T12:54:59.484Z,17.00
2023-04-27T12:57:26.636Z,16.59
2023-04-27T12:59:53.564Z,16.49
2023-04-27T13:02:20.301Z,16.68
2023-04-27T13:04:47.228Z,17.12
2023-04-27T13:07:13.837Z,17.28
2023-04-27T13:09:41.602Z,17.14
2023-04-27T13:12:08.206Z,17.25
2023-04-27T13:14:34.861Z,16.98
2023-04-27T13:17:02.320Z,17.08
2023-04-27T13:19:29.015Z,17.25
2023-04-27T13:21:55.615Z,16.73
2023-04-27T13:24:24.543Z,16.77
2023-04-27T13:26:51.031Z,16.99
2023-04-27T13:29:18.087Z,17.09
2023-04-27T13:31:44.660Z,16.97
2023-04-27T13:34:11.207Z,17.07
2023-04-27T13:36:37.710Z,17.27
2023-04-27T13:39:04.982Z,17.46
2023-04-27T13:41:31.516Z,17.44
2023-04-27T13:43:58.016Z,17.63
2023-04-27T13:46:24.544Z,17.74
2023-04-27T13:48:51.237Z,17.36
2023-04-27T13:51:17.925Z,17.19
2023-04-27T13:53:45.772Z,17.00
2023-04-27T13:56:12.402Z,16.76
2023-04-27T13:58:39.212Z,16.58
2023-04-27T14:01:05.890Z,16.72
2023-04-27T14:03:33.787Z,16.74
2023-04-27T14:06:01.511Z,16.74
2023-04-27T14:08:28.150Z,16.90
2023-04-27T14:10:55.197Z,17.11
2023-04-27T14:13:21.838Z,17.20
2023-04-27T14:15:48.506Z,17.40
2023-04-27T14:18:15.728Z,17.39
2023-04-27T14:20:47.284Z,17.39
2023-04-27T14:23:13.848Z,17.14
2023-04-27T14:25:42.659Z,17.15
2023-04-27T14:28:10.894Z,17.34
2023-04-27T14:30:37.669Z,17.24
2023-04-27T14:33:04.268Z,17.18
2023-04-27T14:35:31.030Z,17.22
2023-04-27T14:38:02.073Z,17.11
2023-04-27T14:40:32.545Z,16.98
2023-04-27T14:42:59.093Z,16.72
2023-04-27T14:45:30.949Z,16.47
2023-04-27T14:48:03.588Z,16.62
2023-04-27T14:50:30.210Z,16.93
2023-04-27T14:52:58.826Z,16.99
2023-04-27T14:55:25.548Z,17.12
2023-04-27T14:57:52.082Z,16.99
2023-04-27T15:00:18.774Z,16.93
2023-04-27T15:02:45.930Z,17.03
2023-04-27T15:05:12.508Z,16.96
2023-04-27T15:07:39.121Z,16.86
2023-04-27T15:10:06.344Z,16.73
2023-04-27T15:12:32.903Z,16.79
2023-04-27T15:14:59.460Z,16.88
2023-04-27T15:17:27.452Z,16.67
2023-04-27T15:19:54.716Z,16.49
2023-04-27T15:22:21.567Z,16.64
2023-04-27T15:24:48.099Z,16.66
2023-04-27T15:27:18.692Z,16.61
2023-04-27T15:29:45.230Z,16.77
2023-04-27T15:32:11.801Z,16.63
2023-04-27T15:34:38.594Z,16.75
2023-04-27T15:37:06.944Z,16.34
2023-04-27T15:39:33.483Z,16.51
2023-04-27T15:42:01.298Z,16.88
2023-04-27T15:44:27.791Z,17.37
2023-04-27T15:46:54.534Z,17.57
2023-04-27T15:49:21.528Z,17.42
2023-04-27T15:51:48.071Z,17.21
2023-04-27T15:54:14.589Z,17.48
2023-04-27T15:56:41.080Z,17.98
2023-04-27T15:59:11.013Z,18.37
2023-04-27T16:01:37.650Z,18.82
2023-04-27T16:04:04.508Z,18.88
2023-04-27T16:06:35.735Z,18.85
2023-04-27T16:09:04.089Z,17.95
2023-04-27T16:11:31.667Z,17.35
2023-04-27T16:13:58.561Z,16.77
2023-04-27T16:16:25.194Z,16.81
2023-04-27T16:18:51.707Z,16.76
2023-04-27T16:21:18.367Z,16.78
2023-04-27T16:23:44.877Z,16.54
2023-04-27T16:26:11.486Z,16.28
2023-04-27T16:28:38.094Z,15.85
2023-04-27T16:31:04.654Z,15.32
2023-04-27T16:33:32.554Z,15.26
2023-04-27T16:35:59.063Z,15.17
2023-04-27T16:38:25.694Z,15.05
2023-04-27T16:40:52.727Z,14.94
2023-04-27T16:43:19.336Z,14.82
2023-04-27T16:45:46.045Z,14.80
2023-04-27T16:48:12.913Z,14.65
2023-04-27T16:50:39.412Z,14.62
2023-04-27T16:53:07.385Z,14.49
2023-04-27T16:55:35.065Z,14.28
2023-04-27T16:58:01.783Z,14.17
2023-04-27T17:00:28.888Z,14.17
2023-04-27T17:02:55.538Z,14.14
2023-04-27T17:05:22.260Z,14.09
2023-04-27T17:07:48.982Z,14.01
2023-04-27T17:10:16.892Z,13.94
2023-04-27T17:12:43.474Z,13.89
2023-04-27T17:15:11.974Z,13.69
2023-04-27T17:17:38.680Z,13.61
2023-04-27T17:20:06.950Z,13.53
2023-04-27T17:22:33.525Z,13.60
2023-04-27T17:25:00.105Z,13.56
2023-04-27T17:27:26.717Z,13.55
2023-04-27T17:29:54.509Z,13.44
2023-04-27T17:32:21.197Z,13.33
2023-04-27T17:34:47.980Z,13.15
2023-04-27T17:37:14.891Z,12.93
2023-04-27T17:39:41.483Z,12.77
2023-04-27T17:42:12.223Z,12.63
2023-04-27T17:44:41.549Z,12.61
2023-04-27T17:47:08.336Z,12.52
2023-04-27T17:49:35.615Z,12.43
2023-04-27T17:52:03.935Z,12.34
2023-04-27T17:54:30.612Z,12.20
2023-04-27T17:56:57.320Z,12.19
2023-04-27T17:59:24.883Z,12.21
2023-04-27T18:01:51.616Z,12.10
2023-04-27T18:04:18.274Z,12.04
2023-04-27T18:06:44.880Z,11.97
2023-04-27T18:09:12.232Z,11.91
2023-04-27T18:11:38.969Z,11.82
2023-04-27T18:14:05.537Z,11.74
2023-04-27T18:16:32.608Z,11.64
2023-04-27T18:18:59.213Z,11.60
2023-04-27T18:21:28.049Z,11.55
2023-04-27T18:23:54.547Z,11.48
2023-04-27T18:26:22.005Z,11.41
2023-04-27T18:28:48.521Z,11.33
2023-04-27T18:31:19.122Z,11.28
2023-04-27T18:33:46.448Z,11.23
2023-04-27T18:36:13.221Z,11.17
2023-04-27T18:38:42.451Z,11.09
2023-04-27T18:41:08.956Z,10.99
2023-04-27T18:43:38.753Z,10.97
2023-04-27T18:46:05.937Z,10.94
2023-04-27T18:48:32.630Z,10.85
2023-04-27T18:50:59.164Z,10.80
2023-04-27T18:53:26.590Z,10.76
2023-04-27T18:55:53.284Z,10.66
2023-04-27T18:58:20.011Z,10.64
2023-04-27T19:00:46.575Z,10.59
2023-04-27T19:03:13.439Z,10.59
2023-04-27T19:05:42.874Z,10.53
2023-04-27T19:08:12.201Z,10.49
2023-04-27T19:10:41.255Z,10.45
2023-04-27T19:13:07.968Z,10.46
2023-04-27T19:15:34.537Z,10.35
2023-04-27T19:18:09.993Z,10.30
2023-04-27T19:20:38.039Z,10.32
2023-04-27T19:23:05.228Z,10.28
2023-04-27T19:25:31.971Z,10.29
2023-04-27T19:27:58.639Z,10.24
2023-04-27T19:30:25.316Z,10.23
2023-04-27T19:32:51.986Z,10.18
2023-04-27T19:35:20.246Z,10.21
2023-04-27T19:37:46.730Z,10.15
2023-04-27T19:40:13.709Z,10.12
2023-04-27T19:42:40.502Z,10.01
2023-04-27T19:45:07.679Z,10.00
2023-04-27T19:47:34.540Z,9.99
2023-04-27T19:50:01.255Z,9.92
2023-04-27T19:52:27.974Z,9.93
2023-04-27T19:54:54.706Z,9.84
2023-04-27T19:57:21.767Z,9.91
2023-04-27T19:59:48.279Z,9.80
2023-04-27T20:02:15.318Z,9.80
2023-04-27T20:04:42.210Z,9.74
2023-04-27T20:07:09.147Z,9.73
2023-04-27T20:09:35.643Z,9.67
2023-04-27T20:12:03.684Z,9.62
2023-04-27T20:14:33.650Z,9.62
2023-04-27T20:17:00.438Z,9.61
2023-04-27T20:19:29.079Z,9.54
2023-04-27T20:21:55.752Z,9.59
2023-04-27T20:24:22.818Z,9.54
2023-04-27T20:26:49.460Z,9.44
2023-04-27T20:29:16.144Z,9.49
2023-04-27T20:31:42.689Z,9.42
2023-04-27T20:34:11.840Z,9.42
2023-04-27T20:36:38.435Z,9.38
2023-04-27T20:39:05.709Z,9.41
2023-04-27T20:41:35.659Z,9.42
2023-04-27T20:44:02.356Z,9.40
2023-04-27T20:46:29.609Z,9.37
2023-04-27T20:48:56.259Z,9.30
2023-04-27T20:51:23.636Z,9.28
2023-04-27T20:53:50.197Z,9.22
2023-04-27T20:56:16.991Z,9.25
2023-04-27T20:58:44.109Z,9.18
2023-04-27T21:01:10.646Z,9.14
2023-04-27T21:03:37.346Z,9.09
2023-04-27T21:06:04.164Z,9.00
2023-04-27T21:08:30.770Z,8.99
2023-04-27T21:10:57.577Z,8.96
2023-04-27T21:13:24.531Z,8.93
2023-04-27T21:15:51.096Z,8.94
2023-04-27T21:18:28.862Z,8.87
2023-04-27T21:20:56.627Z,8.84
2023-04-27T21:23:23.268Z,8.77
2023-04-27T21:25:49.726Z,8.72
2023-04-27T21:28:16.348Z,8.74
2023-04-27T21:30:42.938Z,8.72
2023-04-27T21:33:09.534Z,8.75
2023-04-27T21:35:36.435Z,8.76
2023-04-27T21:38:02.960Z,8.71
2023-04-27T21:40:29.428Z,8.68
2023-04-27T21:42:56.401Z,8.66
2023-04-27T21:45:23.237Z,8.69
2023-04-27T21:47:49.857Z,8.67
2023-04-27T21:50:16.817Z,8.62
2023-04-27T21:52:43.399Z,8.62
2023-04-27T21:55:10.058Z,8.61
2023-04-27T21:57:36.868Z,8.61
2023-04-27T22:00:13.026Z,8.62
2023-04-27T22:02:42.423Z,8.60
2023-04-27T22:05:09.685Z,8.58
2023-04-27T22:07:37.489Z,8.59
2023-04-27T22:10:05.800Z,8.58
2023-04-27T22:12:33.417Z,8.64
2023-04-27T22:15:00.854Z,8.60
2023-04-27T22:17:27.951Z,8.59
2023-04-27T22:19:54.947Z,8.58
2023-04-27T22:22:21.517Z,8.52
2023-04-27T22:24:47.956Z,8.58
2023-04-27T22:27:14.452Z,8.51
2023-04-27T22:29:40.925Z,8.55
2023-04-27T22:32:07.575Z,8.54
2023-04-27T22:34:34.138Z,8.53
2023-04-27T22:37:02.000Z,8.50
2023-04-27T22:39:29.898Z,8.54
2023-04-27T22:41:56.358Z,8.52
2023-04-27T22:44:22.899Z,8.57
2023-04-27T22:46:49.486Z,8.56
2023-04-27T22:49:17.273Z,8.56
2023-04-27T22:51:43.840Z,8.55
2023-04-27T22:54:10.479Z,8.52
2023-04-27T22:56:36.941Z,8.56
2023-04-27T22:59:03.643Z,8.53
2023-04-27T23:01:30.313Z,8.53
2023-04-27T23:03:57.016Z,8.52
2023-04-27T23:06:23.537Z,8.51
2023-04-27T23:08:50.357Z,8.49
2023-04-27T23:11:19.003Z,8.50
2023-04-27T23:13:48.439Z,8.49
2023-04-27T23:16:15.724Z,8.47
2023-04-27T23:18:42.582Z,8.46
2023-04-27T23:21:11.303Z,8.42
2023-04-27T23:23:37.867Z,8.41
2023-04-27T23:26:12.177Z,8.39
2023-04-27T23:28:38.812Z,8.38
2023-04-27T23:31:05.306Z,8.40
2023-04-27T23:33:32.130Z,8.38
2023-04-27T23:35:58.553Z,8.35
2023-04-27T23:38:25.163Z,8.30
2023-04-27T23:40:52.043Z,8.29
2023-04-27T23:43:18.527Z,8.25
2023-04-27T23:45:52.616Z,8.27
2023-04-27T23:48:19.567Z,8.21
2023-04-27T23:50:46.426Z,8.16
2023-04-27T23:53:12.859Z,8.13
2023-04-27T23:55:39.535Z,8.14
2023-04-27T23:58:06.212Z,8.13
